Flight Track Log - Related Links

Times and Time Zones

All times are in EST time to prevent confusion due to time zone crossing. See the N789EX flight status page for this flight to view local times or setup timezone preferences in your user account.

Time Position Orientation Groundspeed Altitude Reporting Facility
EST Latitude Longitude Course Direction KTS MPH feet Rate Location/Type
Mon 04:30:15 PM 47.3935 -119.9560 299° West 402 463 18,100  Level FlightAware ADS-B
Mon 04:30:46 PM 47.4219 -120.0310 299° West 409 471 19,500 1,869 Climbing FlightAware ADS-B
Mon 04:31:16 PM 47.4507 -120.1070 299° West 432 497 20,000 492 Climbing FlightAware ADS-B
Mon 04:31:47 PM 47.4805 -120.1860 299° West 435 501 20,000  Level FlightAware ADS-B
Mon 04:32:39 PM 47.5323 -120.3230 299° West 439 505 20,000  Level FlightAware ADS-B
Mon 04:33:10 PM 47.5626 -120.4030 299° West 438 504 20,000  Level FlightAware ADS-B
Mon 04:33:43 PM 47.5948 -120.4890 299° West 436 502 20,000  Level FlightAware ADS-B
Mon 04:34:13 PM 47.6244 -120.5690 299° West 436 502 20,000  Level FlightAware ADS-B
Mon 04:34:44 PM 47.6538 -120.6480 299° West 433 498 20,000  Level FlightAware ADS-B
Mon 04:35:14 PM 47.6829 -120.7260 299° West 435 501 20,000  Level FlightAware ADS-B
Mon 04:35:44 PM 47.7124 -120.8060 299° West 435 501 20,000 -590 Level FlightAware ADS-B
Mon 04:36:15 PM 47.7418 -120.8860 299° West 438 504 19,400 -1,770 Descending FlightAware ADS-B
Mon 04:36:45 PM 47.7707 -120.9640 299° West 429 494 18,200 -2,500 Descending FlightAware ADS-B
Mon 04:37:15 PM 47.7990 -121.0420 298° West 427 491 16,900 -2,600 Descending FlightAware ADS-B
Mon 04:37:45 PM 47.8274 -121.1190 299° West 424 488 15,600 -2,400 Descending FlightAware ADS-B
Mon 04:37:55 PM 47.8364 -121.1440 298° West 419 482 15,300 -2,286 Descending FlightAware ADS-B
Mon 04:38:06 PM 47.8449 -121.1730 294° West 403 464 14,800 -3,000 Descending FlightAware ADS-B
Mon 04:38:21 PM 47.8532 -121.2130 287° West 390 449 14,000 -2,889 Descending FlightAware ADS-B
Mon 04:38:33 PM 47.8573 -121.2430 282° West 388 447 13,500 -2,372 Descending FlightAware ADS-B
Mon 04:39:04 PM 47.8628 -121.3250 276° West 380 437 12,300 -1,627 Descending FlightAware ADS-B
Mon 04:39:32 PM 47.8672 -121.3950 275° West 358 412 11,900 -724 Descending FlightAware ADS-B
Mon 04:40:02 PM 47.8719 -121.4650 276° West 330 380 11,600 -500 Descending FlightAware ADS-B
Mon 04:40:32 PM 47.8759 -121.5310 275° West 305 351 11,400 -436 Descending FlightAware ADS-B
Mon 04:40:57 PM 47.8787 -121.5810 275° West 287 330 11,200 -387 Descending FlightAware ADS-B
Mon 04:41:03 PM 47.8787 -121.5930 270° West 280 322 11,200 -667 Level FlightAware ADS-B
Mon 04:41:15 PM 47.8767 -121.6150 262° West 272 313 11,000 -857 Descending FlightAware ADS-B
Mon 04:41:24 PM 47.8746 -121.6311 259° West 268 308 10,900 -1,071 Descending FlightAware ADS-B
Mon 04:41:43 PM 47.8694 -121.6660 258° West 264 304 10,500 -1,317 Descending FlightAware ADS-B
Mon 04:42:05 PM 47.8638 -121.7050 258° West 262 302 10,000 -1,421 Descending FlightAware ADS-B
Mon 04:42:21 PM 47.8599 -121.7330 258° West 260 299 9,600 -1,448 Descending FlightAware ADS-B
Mon 04:42:34 PM 47.8568 -121.7550 258° West 259 298 9,300 -1,500 Descending FlightAware ADS-B
Mon 04:42:49 PM 47.8530 -121.7820 258° West 258 297 8,900 -1,161 Descending FlightAware ADS-B
Mon 04:43:05 PM 47.8495 -121.8080 259° West 251 289 8,700 -774 Descending FlightAware ADS-B
Mon 04:43:20 PM 47.8461 -121.8340 259° West 245 282 8,500 -889 Descending FlightAware ADS-B
Mon 04:43:32 PM 47.8534 -121.7793 79° East 252 290 8,300 -1,200 Descending FlightAware ADS-B
Mon 04:43:35 PM 47.8429 -121.8580 259° West 235 270 8,200 -1,500 Descending FlightAware ADS-B
Mon 04:43:48 PM 47.8404 -121.8790 260° West 235 270 7,900 -1,556 Descending FlightAware ADS-B
Mon 04:44:02 PM 47.8377 -121.9000 259° West 234 269 7,500 -1,655 Descending FlightAware ADS-B
Mon 04:44:17 PM 47.8349 -121.9240 260° West 232 267 7,100 -1,846 Descending FlightAware ADS-B
Mon 04:44:28 PM 47.8329 -121.9420 261° West 234 269 6,700 -1,846 Descending FlightAware ADS-B
Mon 04:44:43 PM 47.8301 -121.9660 260° West 236 272 6,300 -1,600 Descending FlightAware ADS-B
Mon 04:44:58 PM 47.8273 -121.9900 260° West 235 270 5,900 -1,615 Descending FlightAware ADS-B
Mon 04:45:09 PM 47.8253 -122.0070 260° West 234 269 5,600 -1,615 Descending FlightAware ADS-B
Mon 04:45:24 PM 47.8225 -122.0310 260° West 231 266 5,200 -1,800 Descending FlightAware ADS-B
Mon 04:45:39 PM 47.8196 -122.0550 260° West 234 269 4,700 -1,778 Descending FlightAware ADS-B
Mon 04:45:51 PM 47.8173 -122.0730 259° West 232 267 4,400 -1,286 Descending FlightAware ADS-B
Mon 04:46:07 PM 47.8142 -122.0980 260° West 230 265 4,100 -1,355 Descending FlightAware ADS-B
Mon 04:46:22 PM 47.8113 -122.1210 259° West 227 261 3,700 -1,400 Descending FlightAware ADS-B
Mon 04:46:37 PM 47.8085 -122.1450 260° West 221 254 3,400 -800 Descending FlightAware ADS-B
Mon 04:46:52 PM 47.8060 -122.1660 260° West 221 254 3,300 -222 Descending FlightAware ADS-B
Mon 04:47:04 PM 47.8040 -122.1840 261° West 222 255 3,300  Level FlightAware ADS-B
Mon 04:47:19 PM 47.8014 -122.2070 260° West 209 241 3,300  Level FlightAware ADS-B
Mon 04:47:49 PM 47.7966 -122.2480 260° West 202 232 3,300  Level FlightAware ADS-B
Mon 04:47:52 PM 47.7959 -122.2520 255° West 195 224 3,300  Level FlightAware ADS-B
Mon 04:48:12 PM 47.7893 -122.2730 245° Southwest 191 220 3,300 -207 Level FlightAware ADS-B
Mon 04:48:21 PM 47.7854 -122.2840 242° Southwest 171 197 3,200 -857 Descending FlightAware ADS-B
Mon 04:48:40 PM 47.7781 -122.3020 239° Southwest 170 196 2,900 -1,059 Descending FlightAware ADS-B
Mon 04:48:55 PM 47.7720 -122.3180 240° Southwest 169 194 2,600 -1,200 Descending FlightAware ADS-B
Mon 04:49:10 PM 47.7661 -122.3330 240° Southwest 169 194 2,300 -1,161 Descending FlightAware ADS-B
Mon 04:49:26 PM 47.7601 -122.3490 241° Southwest 170 196 2,000 -450 Descending FlightAware ADS-B
Mon 04:49:50 PM 47.7503 -122.3750 241° Southwest 170 196 2,000  Level FlightAware ADS-B
Mon 04:50:20 PM 47.7386 -122.4060 241° Southwest 170 196 2,000  Level FlightAware ADS-B
Mon 04:51:00 PM 47.7137 -122.4310 214° Southwest 173 199 2,000  Level FlightAware ADS-B
Mon 04:51:31 PM 47.6888 -122.4270 174° South 177 204 2,000  Level FlightAware ADS-B
Mon 04:51:52 PM 47.6720 -122.4230 171° South 180 207 2,000  Level FlightAware ADS-B
Mon 04:52:00 PM 47.6656 -122.4180 152° Southeast 182 209 2,000  Level FlightAware ADS-B
Mon 04:52:09 PM 47.6590 -122.4120 149° Southeast 182 209 2,000  Level FlightAware ADS-B
Mon 04:52:19 PM 47.6520 -122.4060 150° Southeast 182 209 2,000  Level FlightAware ADS-B
Mon 04:52:34 PM 47.6409 -122.3960 149° Southeast 182 209 2,000 -200 Level FlightAware ADS-B
Mon 04:52:49 PM 47.6300 -122.3870 151° Southeast 174 200 1,900 -600 Descending FlightAware ADS-B
Mon 04:53:04 PM 47.6201 -122.3790 151° Southeast 164 189 1,700 -889 Descending FlightAware ADS-B
Mon 04:53:43 PM 47.5965 -122.3590 150° Southeast 162 186 1,100 -906 Descending FlightAware ADS-B
Mon 04:53:57 PM 47.5882 -122.3520 150° Southeast 146 168 900 -667 Descending FlightAware ADS-B
Mon 04:55:04 PM 47.5492 -122.3186 150° Southeast 150 173 200 -571 Descending Seattle Center
Mon 04:55:21 PM 47.5433 -122.3164 166° South 179 206 100 -353 Descending Seattle Center

Login

Don't have an account? Register now (free) for customized features, flight alerts, and more!